Terminal Aerodrome Forecast
Issued by NWS

Home | Current Version | Previous Version | Text Only | Print | Product List | Glossary On
Versions: 1 2 3 4 5 6 7 8 9 10 11 12 13 14 15 16 17 18 19 20 21 22 23 24 25 26
000
FTUS41 KPBZ 301720
TAFZZV
TAF
KZZV 301720Z 3018/0118 09004KT P6SM -RA OVC050
     FM010000 12005KT 3SM -RA BR OVC020
     FM010400 15007KT 4SM -RA OVC007
     FM010700 20006KT P6SM -SHRA OVC012
     FM011500 23006KT P6SM BKN025=

USA.gov is the U.S. government's official web portal to all federal, state and local government web resources and services.